Airport View

Enter AWOS ICAO identifier for current METAR.

ex. KFNL

PADK 220003Z AUTO 05013KT 10SM -RA BKN009 BKN029 OVC060 08/08 A2947

22 Sep 2019 00:13

Frequency: 134.5

Phone: 907-592-8207

Other Area AWOS: PAAK

TAF PASY 212200Z 2122/2304 03015G20KT 8000 BR BKN020 620403 QNH2963INS BECMG 2217/2218 31015G20KT 4800 -SHRA BKN015 QNH2978INS BECMG 2219/2220 28015G20KT 8000 BR BKN020 620304 QNH2981INS TX11/2209Z TN07/2221Z